sensor_id;sensor_type;location;lat;lon;timestamp;temperature;humidity
69895;DHT22;57172;52.034;5.090;2022-10-31T00:01:27;13.90;76.80
69895;DHT22;57172;52.034;5.090;2022-10-31T00:03:54;13.90;76.70
69895;DHT22;57172;52.034;5.090;2022-10-31T00:06:21;13.90;77.00
69895;DHT22;57172;52.034;5.090;2022-10-31T00:08:57;13.90;77.10
69895;DHT22;57172;52.034;5.090;2022-10-31T00:11:25;13.90;77.10
69895;DHT22;57172;52.034;5.090;2022-10-31T00:13:52;13.80;77.00
69895;DHT22;57172;52.034;5.090;2022-10-31T00:16:23;13.90;77.00
69895;DHT22;57172;52.034;5.090;2022-10-31T00:18:52;13.90;76.90
69895;DHT22;57172;52.034;5.090;2022-10-31T00:21:20;13.90;76.80
69895;DHT22;57172;52.034;5.090;2022-10-31T00:23:47;13.90;76.80
69895;DHT22;57172;52.034;5.090;2022-10-31T00:26:15;13.90;76.70
69895;DHT22;57172;52.034;5.090;2022-10-31T00:28:42;13.90;76.80
69895;DHT22;57172;52.034;5.090;2022-10-31T00:31:10;13.90;76.70
69895;DHT22;57172;52.034;5.090;2022-10-31T00:33:38;13.90;76.70
69895;DHT22;57172;52.034;5.090;2022-10-31T00:36:06;13.90;76.70
69895;DHT22;57172;52.034;5.090;2022-10-31T00:38:33;13.90;76.60
69895;DHT22;57172;52.034;5.090;2022-10-31T00:41:00;13.90;76.60
69895;DHT22;57172;52.034;5.090;2022-10-31T00:43:27;13.90;76.60
69895;DHT22;57172;52.034;5.090;2022-10-31T00:45:54;13.90;76.60
69895;DHT22;57172;52.034;5.090;2022-10-31T00:48:24;13.90;76.60
69895;DHT22;57172;52.034;5.090;2022-10-31T00:50:52;13.90;76.60
69895;DHT22;57172;52.034;5.090;2022-10-31T00:53:19;13.90;76.50
69895;DHT22;57172;52.034;5.090;2022-10-31T00:55:47;13.80;76.50
69895;DHT22;57172;52.034;5.090;2022-10-31T00:58:14;13.80;76.50
69895;DHT22;57172;52.034;5.090;2022-10-31T01:00:49;13.80;76.60
69895;DHT22;57172;52.034;5.090;2022-10-31T01:03:24;13.70;76.70
69895;DHT22;57172;52.034;5.090;2022-10-31T01:06:12;13.70;76.60
69895;DHT22;57172;52.034;5.090;2022-10-31T01:08:39;13.70;76.50
69895;DHT22;57172;52.034;5.090;2022-10-31T01:11:15;13.70;76.70
69895;DHT22;57172;52.034;5.090;2022-10-31T01:13:42;13.70;76.60
69895;DHT22;57172;52.034;5.090;2022-10-31T01:16:12;13.60;76.60
69895;DHT22;57172;52.034;5.090;2022-10-31T01:18:39;13.60;76.50
69895;DHT22;57172;52.034;5.090;2022-10-31T01:21:10;13.60;76.30
69895;DHT22;57172;52.034;5.090;2022-10-31T01:23:37;13.60;76.10
69895;DHT22;57172;52.034;5.090;2022-10-31T01:26:10;13.60;75.70
69895;DHT22;57172;52.034;5.090;2022-10-31T01:28:44;13.60;75.60
69895;DHT22;57172;52.034;5.090;2022-10-31T01:31:12;13.50;75.50
69895;DHT22;57172;52.034;5.090;2022-10-31T01:33:39;13.40;75.40
69895;DHT22;57172;52.034;5.090;2022-10-31T01:36:22;13.40;75.40
69895;DHT22;57172;52.034;5.090;2022-10-31T01:38:53;13.30;75.40
69895;DHT22;57172;52.034;5.090;2022-10-31T01:41:25;13.20;75.30
69895;DHT22;57172;52.034;5.090;2022-10-31T01:43:57;13.20;75.20
69895;DHT22;57172;52.034;5.090;2022-10-31T01:46:37;13.10;75.20
69895;DHT22;57172;52.034;5.090;2022-10-31T01:49:14;13.00;75.20
69895;DHT22;57172;52.034;5.090;2022-10-31T01:51:54;13.00;75.10
69895;DHT22;57172;52.034;5.090;2022-10-31T01:54:26;12.90;75.10
69895;DHT22;57172;52.034;5.090;2022-10-31T01:56:56;12.90;75.10
69895;DHT22;57172;52.034;5.090;2022-10-31T01:59:26;12.80;75.20
69895;DHT22;57172;52.034;5.090;2022-10-31T02:01:54;12.80;75.20
69895;DHT22;57172;52.034;5.090;2022-10-31T02:04:23;12.70;75.20
69895;DHT22;57172;52.034;5.090;2022-10-31T02:07:02;12.70;75.50
69895;DHT22;57172;52.034;5.090;2022-10-31T02:09:31;12.60;75.80
69895;DHT22;57172;52.034;5.090;2022-10-31T02:12:01;12.60;75.70
69895;DHT22;57172;52.034;5.090;2022-10-31T02:14:30;12.50;75.70
69895;DHT22;57172;52.034;5.090;2022-10-31T02:16:57;12.50;75.70
69895;DHT22;57172;52.034;5.090;2022-10-31T02:25:09;12.40;75.70
69895;DHT22;57172;52.034;5.090;2022-10-31T02:28:10;12.40;75.70
69895;DHT22;57172;52.034;5.090;2022-10-31T02:33:43;12.30;75.50
69895;DHT22;57172;52.034;5.090;2022-10-31T02:36:18;12.30;75.70
69895;DHT22;57172;52.034;5.090;2022-10-31T02:38:50;12.20;75.60
69895;DHT22;57172;52.034;5.090;2022-10-31T02:47:14;12.10;75.50
69895;DHT22;57172;52.034;5.090;2022-10-31T02:52:25;12.00;75.80
69895;DHT22;57172;52.034;5.090;2022-10-31T02:54:52;12.00;76.20
69895;DHT22;57172;52.034;5.090;2022-10-31T02:57:25;11.90;76.30
69895;DHT22;57172;52.034;5.090;2022-10-31T03:00:00;11.90;76.50
69895;DHT22;57172;52.034;5.090;2022-10-31T03:02:34;11.90;76.50
69895;DHT22;57172;52.034;5.090;2022-10-31T03:15:32;11.90;76.90
69895;DHT22;57172;52.034;5.090;2022-10-31T03:18:08;11.90;76.90
69895;DHT22;57172;52.034;5.090;2022-10-31T03:21:19;11.90;76.90
69895;DHT22;57172;52.034;5.090;2022-10-31T03:23:44;11.90;77.00
69895;DHT22;57172;52.034;5.090;2022-10-31T03:26:20;11.90;77.00
69895;DHT22;57172;52.034;5.090;2022-10-31T03:28:57;11.90;77.10
69895;DHT22;57172;52.034;5.090;2022-10-31T03:31:30;11.80;77.40
69895;DHT22;57172;52.034;5.090;2022-10-31T03:34:00;11.80;77.40
69895;DHT22;57172;52.034;5.090;2022-10-31T03:36:30;11.80;77.50
69895;DHT22;57172;52.034;5.090;2022-10-31T03:39:02;11.80;77.80
69895;DHT22;57172;52.034;5.090;2022-10-31T03:41:33;11.80;77.80
69895;DHT22;57172;52.034;5.090;2022-10-31T03:44:08;11.80;77.80
69895;DHT22;57172;52.034;5.090;2022-10-31T03:46:38;11.80;78.00
69895;DHT22;57172;52.034;5.090;2022-10-31T03:49:05;11.80;78.00
69895;DHT22;57172;52.034;5.090;2022-10-31T03:51:38;11.80;78.00
69895;DHT22;57172;52.034;5.090;2022-10-31T03:54:21;11.80;78.00
69895;DHT22;57172;52.034;5.090;2022-10-31T03:57:55;11.80;78.10
69895;DHT22;57172;52.034;5.090;2022-10-31T03:59:55;11.80;78.00
69895;DHT22;57172;52.034;5.090;2022-10-31T04:02:28;11.80;78.00
69895;DHT22;57172;52.034;5.090;2022-10-31T04:04:56;11.80;78.00
69895;DHT22;57172;52.034;5.090;2022-10-31T04:07:28;11.80;78.00
69895;DHT22;57172;52.034;5.090;2022-10-31T04:09:56;11.70;78.20
69895;DHT22;57172;52.034;5.090;2022-10-31T04:12:25;11.70;78.30
69895;DHT22;57172;52.034;5.090;2022-10-31T04:15:03;11.70;78.30
69895;DHT22;57172;52.034;5.090;2022-10-31T04:17:36;11.70;78.30
69895;DHT22;57172;52.034;5.090;2022-10-31T04:20:06;11.70;78.30
69895;DHT22;57172;52.034;5.090;2022-10-31T04:22:33;11.70;78.40
69895;DHT22;57172;52.034;5.090;2022-10-31T04:25:00;11.70;78.40
69895;DHT22;57172;52.034;5.090;2022-10-31T04:27:27;11.70;78.40
69895;DHT22;57172;52.034;5.090;2022-10-31T04:29:55;11.70;78.50
69895;DHT22;57172;52.034;5.090;2022-10-31T04:32:22;11.70;78.70
69895;DHT22;57172;52.034;5.090;2022-10-31T04:34:51;11.70;78.60
69895;DHT22;57172;52.034;5.090;2022-10-31T04:37:18;11.70;78.80
69895;DHT22;57172;52.034;5.090;2022-10-31T04:39:47;11.70;78.80
69895;DHT22;57172;52.034;5.090;2022-10-31T04:42:32;11.70;78.60
69895;DHT22;57172;52.034;5.090;2022-10-31T04:45:02;11.70;78.50
69895;DHT22;57172;52.034;5.090;2022-10-31T04:47:32;11.60;78.50
69895;DHT22;57172;52.034;5.090;2022-10-31T04:50:01;11.60;78.40
69895;DHT22;57172;52.034;5.090;2022-10-31T04:52:28;11.60;78.50
69895;DHT22;57172;52.034;5.090;2022-10-31T04:54:56;11.60;78.40
69895;DHT22;57172;52.034;5.090;2022-10-31T04:57:49;11.60;78.30
69895;DHT22;57172;52.034;5.090;2022-10-31T05:00:20;11.60;78.30
69895;DHT22;57172;52.034;5.090;2022-10-31T05:02:54;11.50;78.50
69895;DHT22;57172;52.034;5.090;2022-10-31T05:05:30;11.50;78.60
69895;DHT22;57172;52.034;5.090;2022-10-31T05:08:00;11.50;78.40
69895;DHT22;57172;52.034;5.090;2022-10-31T05:10:30;11.50;78.30
69895;DHT22;57172;52.034;5.090;2022-10-31T05:13:01;11.50;78.20
69895;DHT22;57172;52.034;5.090;2022-10-31T05:15:49;11.50;78.00
69895;DHT22;57172;52.034;5.090;2022-10-31T05:18:42;11.40;77.90
69895;DHT22;57172;52.034;5.090;2022-10-31T05:21:27;11.40;77.80
69895;DHT22;57172;52.034;5.090;2022-10-31T05:23:58;11.30;77.70
69895;DHT22;57172;52.034;5.090;2022-10-31T05:26:26;11.30;77.60
69895;DHT22;57172;52.034;5.090;2022-10-31T05:28:54;11.20;77.60
69895;DHT22;57172;52.034;5.090;2022-10-31T05:31:22;11.20;77.50
69895;DHT22;57172;52.034;5.090;2022-10-31T05:33:50;11.10;77.50
69895;DHT22;57172;52.034;5.090;2022-10-31T05:36:36;11.10;77.50
69895;DHT22;57172;52.034;5.090;2022-10-31T05:39:10;11.10;77.50
69895;DHT22;57172;52.034;5.090;2022-10-31T05:41:42;11.10;77.40
69895;DHT22;57172;52.034;5.090;2022-10-31T05:44:19;11.00;77.40
69895;DHT22;57172;52.034;5.090;2022-10-31T05:47:09;11.00;77.40
69895;DHT22;57172;52.034;5.090;2022-10-31T05:49:54;10.90;77.40
69895;DHT22;57172;52.034;5.090;2022-10-31T05:52:39;10.90;77.30
69895;DHT22;57172;52.034;5.090;2022-10-31T05:55:17;10.90;77.30
69895;DHT22;57172;52.034;5.090;2022-10-31T05:58:00;10.80;77.40
69895;DHT22;57172;52.034;5.090;2022-10-31T06:00:29;10.80;77.40
69895;DHT22;57172;52.034;5.090;2022-10-31T06:03:06;10.80;77.40
69895;DHT22;57172;52.034;5.090;2022-10-31T06:05:44;10.70;77.50
69895;DHT22;57172;52.034;5.090;2022-10-31T06:08:18;10.70;77.60
69895;DHT22;57172;52.034;5.090;2022-10-31T06:10:45;10.70;77.60
69895;DHT22;57172;52.034;5.090;2022-10-31T06:13:15;10.70;77.60
69895;DHT22;57172;52.034;5.090;2022-10-31T06:15:46;10.70;77.60
69895;DHT22;57172;52.034;5.090;2022-10-31T06:18:13;10.70;77.70
69895;DHT22;57172;52.034;5.090;2022-10-31T06:20:46;10.60;78.10
69895;DHT22;57172;52.034;5.090;2022-10-31T06:23:13;10.60;78.60
69895;DHT22;57172;52.034;5.090;2022-10-31T06:25:42;10.70;79.00
69895;DHT22;57172;52.034;5.090;2022-10-31T06:28:10;10.70;79.30
69895;DHT22;57172;52.034;5.090;2022-10-31T06:30:50;10.80;79.60
69895;DHT22;57172;52.034;5.090;2022-10-31T06:33:17;10.90;79.70
69895;DHT22;57172;52.034;5.090;2022-10-31T06:35:54;10.90;79.80
69895;DHT22;57172;52.034;5.090;2022-10-31T06:38:21;11.00;79.90
69895;DHT22;57172;52.034;5.090;2022-10-31T06:40:48;11.00;80.00
69895;DHT22;57172;52.034;5.090;2022-10-31T06:43:35;11.00;80.10
69895;DHT22;57172;52.034;5.090;2022-10-31T06:46:18;11.10;80.10
69895;DHT22;57172;52.034;5.090;2022-10-31T06:49:05;11.10;80.10
69895;DHT22;57172;52.034;5.090;2022-10-31T06:51:41;11.20;80.10
69895;DHT22;57172;52.034;5.090;2022-10-31T06:54:08;11.20;80.10
69895;DHT22;57172;52.034;5.090;2022-10-31T06:56:35;11.20;80.10
69895;DHT22;57172;52.034;5.090;2022-10-31T06:59:05;11.20;80.10
69895;DHT22;57172;52.034;5.090;2022-10-31T07:02:01;11.30;80.10
69895;DHT22;57172;52.034;5.090;2022-10-31T07:04:29;11.30;80.10
69895;DHT22;57172;52.034;5.090;2022-10-31T07:06:56;11.30;80.20
69895;DHT22;57172;52.034;5.090;2022-10-31T07:09:23;11.30;80.10
69895;DHT22;57172;52.034;5.090;2022-10-31T07:11:52;11.40;80.20
69895;DHT22;57172;52.034;5.090;2022-10-31T07:14:19;11.40;80.10
69895;DHT22;57172;52.034;5.090;2022-10-31T07:16:50;11.40;80.30
69895;DHT22;57172;52.034;5.090;2022-10-31T07:19:23;11.50;80.40
69895;DHT22;57172;52.034;5.090;2022-10-31T07:21:50;11.50;80.30
69895;DHT22;57172;52.034;5.090;2022-10-31T07:24:17;11.50;80.20
69895;DHT22;57172;52.034;5.090;2022-10-31T07:27:04;11.60;80.20
69895;DHT22;57172;52.034;5.090;2022-10-31T07:29:31;11.60;80.30
69895;DHT22;57172;52.034;5.090;2022-10-31T07:31:58;11.70;80.40
69895;DHT22;57172;52.034;5.090;2022-10-31T07:34:28;11.70;80.40
69895;DHT22;57172;52.034;5.090;2022-10-31T07:37:14;11.80;80.40
69895;DHT22;57172;52.034;5.090;2022-10-31T07:39:41;11.90;80.40
69895;DHT22;57172;52.034;5.090;2022-10-31T07:42:08;11.90;80.50
69895;DHT22;57172;52.034;5.090;2022-10-31T07:44:36;12.00;80.60
69895;DHT22;57172;52.034;5.090;2022-10-31T07:47:21;12.10;80.80
69895;DHT22;57172;52.034;5.090;2022-10-31T07:50:08;12.20;81.00
69895;DHT22;57172;52.034;5.090;2022-10-31T07:53:09;12.30;81.10
69895;DHT22;57172;52.034;5.090;2022-10-31T07:55:42;12.40;81.00
69895;DHT22;57172;52.034;5.090;2022-10-31T07:58:13;12.50;81.10
69895;DHT22;57172;52.034;5.090;2022-10-31T08:00:44;12.60;81.20
69895;DHT22;57172;52.034;5.090;2022-10-31T08:03:17;12.70;81.50
69895;DHT22;57172;52.034;5.090;2022-10-31T08:06:03;12.90;81.40
69895;DHT22;57172;52.034;5.090;2022-10-31T08:08:50;13.00;81.30
69895;DHT22;57172;52.034;5.090;2022-10-31T08:11:18;13.20;81.50
69895;DHT22;57172;52.034;5.090;2022-10-31T08:13:46;13.30;81.50
69895;DHT22;57172;52.034;5.090;2022-10-31T08:16:14;13.50;81.50
69895;DHT22;57172;52.034;5.090;2022-10-31T08:18:55;13.60;81.50
69895;DHT22;57172;52.034;5.090;2022-10-31T08:21:23;13.80;81.30
69895;DHT22;57172;52.034;5.090;2022-10-31T08:23:49;14.00;81.40
69895;DHT22;57172;52.034;5.090;2022-10-31T08:26:19;14.10;81.20
69895;DHT22;57172;52.034;5.090;2022-10-31T08:28:48;14.30;80.80
69895;DHT22;57172;52.034;5.090;2022-10-31T08:31:19;14.40;80.20
69895;DHT22;57172;52.034;5.090;2022-10-31T08:33:45;14.50;79.60
69895;DHT22;57172;52.034;5.090;2022-10-31T08:36:19;14.50;79.40
69895;DHT22;57172;52.034;5.090;2022-10-31T08:38:54;14.50;79.10
69895;DHT22;57172;52.034;5.090;2022-10-31T08:41:28;14.50;78.90
69895;DHT22;57172;52.034;5.090;2022-10-31T08:43:55;14.50;78.90
69895;DHT22;57172;52.034;5.090;2022-10-31T08:46:21;14.50;79.10
69895;DHT22;57172;52.034;5.090;2022-10-31T08:48:48;14.50;79.10
69895;DHT22;57172;52.034;5.090;2022-10-31T08:51:16;14.60;79.40
69895;DHT22;57172;52.034;5.090;2022-10-31T08:53:43;14.70;79.50
69895;DHT22;57172;52.034;5.090;2022-10-31T08:56:29;14.80;79.40
69895;DHT22;57172;52.034;5.090;2022-10-31T08:58:56;14.90;79.30
69895;DHT22;57172;52.034;5.090;2022-10-31T09:01:32;15.00;79.00
69895;DHT22;57172;52.034;5.090;2022-10-31T09:04:00;15.10;78.50
69895;DHT22;57172;52.034;5.090;2022-10-31T09:06:27;15.20;78.50
69895;DHT22;57172;52.034;5.090;2022-10-31T09:08:54;15.30;80.30
69895;DHT22;57172;52.034;5.090;2022-10-31T09:11:23;15.80;84.50
69895;DHT22;57172;52.034;5.090;2022-10-31T09:14:09;16.50;84.50
69895;DHT22;57172;52.034;5.090;2022-10-31T09:16:38;17.10;82.10
69895;DHT22;57172;52.034;5.090;2022-10-31T09:19:11;17.50;79.50
69895;DHT22;57172;52.034;5.090;2022-10-31T09:21:38;17.80;77.30
69895;DHT22;57172;52.034;5.090;2022-10-31T09:24:05;17.90;75.60
69895;DHT22;57172;52.034;5.090;2022-10-31T09:26:33;18.00;73.90
69895;DHT22;57172;52.034;5.090;2022-10-31T09:29:13;18.00;72.90
69895;DHT22;57172;52.034;5.090;2022-10-31T09:31:41;17.90;72.10
69895;DHT22;57172;52.034;5.090;2022-10-31T09:34:30;17.90;71.80
69895;DHT22;57172;52.034;5.090;2022-10-31T09:37:09;17.90;71.70
69895;DHT22;57172;52.034;5.090;2022-10-31T09:39:36;17.80;71.30
69895;DHT22;57172;52.034;5.090;2022-10-31T09:45:36;17.70;71.00
69895;DHT22;57172;52.034;5.090;2022-10-31T09:51:32;17.60;71.00
69895;DHT22;57172;52.034;5.090;2022-10-31T09:54:25;17.50;71.10
69895;DHT22;57172;52.034;5.090;2022-10-31T09:56:55;17.40;71.20
69895;DHT22;57172;52.034;5.090;2022-10-31T09:59:34;17.40;71.50
69895;DHT22;57172;52.034;5.090;2022-10-31T10:02:24;17.40;71.80
69895;DHT22;57172;52.034;5.090;2022-10-31T10:04:54;17.40;72.00
69895;DHT22;57172;52.034;5.090;2022-10-31T10:22:15;17.30;72.10
69895;DHT22;57172;52.034;5.090;2022-10-31T10:27:48;17.30;72.30
69895;DHT22;57172;52.034;5.090;2022-10-31T10:33:04;17.30;73.00
69895;DHT22;57172;52.034;5.090;2022-10-31T10:35:39;17.40;73.00
69895;DHT22;57172;52.034;5.090;2022-10-31T10:41:07;17.60;73.60
69895;DHT22;57172;52.034;5.090;2022-10-31T10:43:37;17.70;74.10
69895;DHT22;57172;52.034;5.090;2022-10-31T10:52:00;18.50;73.00
69895;DHT22;57172;52.034;5.090;2022-10-31T10:58:01;18.40;72.10
69895;DHT22;57172;52.034;5.090;2022-10-31T11:00:43;18.30;72.40
69895;DHT22;57172;52.034;5.090;2022-10-31T11:03:17;18.40;72.90
69895;DHT22;57172;52.034;5.090;2022-10-31T11:05:55;18.50;72.90
69895;DHT22;57172;52.034;5.090;2022-10-31T11:08:29;18.60;72.60
69895;DHT22;57172;52.034;5.090;2022-10-31T11:13:49;18.80;71.60
69895;DHT22;57172;52.034;5.090;2022-10-31T11:16:29;18.90;71.20
69895;DHT22;57172;52.034;5.090;2022-10-31T11:19:17;19.00;70.70
69895;DHT22;57172;52.034;5.090;2022-10-31T11:21:46;19.10;69.90
69895;DHT22;57172;52.034;5.090;2022-10-31T11:24:24;19.10;70.10
69895;DHT22;57172;52.034;5.090;2022-10-31T11:27:16;19.10;69.70
69895;DHT22;57172;52.034;5.090;2022-10-31T11:29:46;19.10;69.50
69895;DHT22;57172;52.034;5.090;2022-10-31T11:32:29;19.20;69.50
69895;DHT22;57172;52.034;5.090;2022-10-31T11:34:59;19.30;69.20
69895;DHT22;57172;52.034;5.090;2022-10-31T11:37:29;19.30;69.00
69895;DHT22;57172;52.034;5.090;2022-10-31T11:39:59;19.30;68.50
69895;DHT22;57172;52.034;5.090;2022-10-31T11:42:38;19.20;68.30
69895;DHT22;57172;52.034;5.090;2022-10-31T11:45:16;19.10;68.40
69895;DHT22;57172;52.034;5.090;2022-10-31T11:47:49;19.00;68.40
69895;DHT22;57172;52.034;5.090;2022-10-31T11:50:37;18.80;68.50
69895;DHT22;57172;52.034;5.090;2022-10-31T11:53:17;18.70;68.80
69895;DHT22;57172;52.034;5.090;2022-10-31T11:55:46;18.60;69.10
69895;DHT22;57172;52.034;5.090;2022-10-31T11:58:21;18.60;69.30
69895;DHT22;57172;52.034;5.090;2022-10-31T12:00:51;18.60;69.50
69895;DHT22;57172;52.034;5.090;2022-10-31T12:03:48;18.50;69.60
69895;DHT22;57172;52.034;5.090;2022-10-31T12:06:24;18.50;69.50
69895;DHT22;57172;52.034;5.090;2022-10-31T12:08:54;18.40;69.60
69895;DHT22;57172;52.034;5.090;2022-10-31T12:17:27;18.20;70.40
69895;DHT22;57172;52.034;5.090;2022-10-31T12:23:06;18.10;71.20
69895;DHT22;57172;52.034;5.090;2022-10-31T12:31:01;18.20;71.70
69895;DHT22;57172;52.034;5.090;2022-10-31T12:38:57;18.60;72.30
69895;DHT22;57172;52.034;5.090;2022-10-31T12:41:52;18.70;72.60
69895;DHT22;57172;52.034;5.090;2022-10-31T12:44:50;19.00;72.30
69895;DHT22;57172;52.034;5.090;2022-10-31T12:56:24;19.90;69.90
69895;DHT22;57172;52.034;5.090;2022-10-31T12:59:04;20.00;69.20
69895;DHT22;57172;52.034;5.090;2022-10-31T13:01:45;20.00;68.80
69895;DHT22;57172;52.034;5.090;2022-10-31T13:07:28;20.00;68.30
69895;DHT22;57172;52.034;5.090;2022-10-31T13:12:39;19.90;67.90
69895;DHT22;57172;52.034;5.090;2022-10-31T13:15:20;19.80;67.60
69895;DHT22;57172;52.034;5.090;2022-10-31T13:17:54;19.60;67.70
69895;DHT22;57172;52.034;5.090;2022-10-31T13:20:29;19.50;67.90
69895;DHT22;57172;52.034;5.090;2022-10-31T13:26:21;19.20;68.30
69895;DHT22;57172;52.034;5.090;2022-10-31T13:29:05;19.00;68.60
69895;DHT22;57172;52.034;5.090;2022-10-31T13:31:33;19.00;68.90
69895;DHT22;57172;52.034;5.090;2022-10-31T13:34:18;18.90;69.10
69895;DHT22;57172;52.034;5.090;2022-10-31T13:42:41;18.70;69.60
69895;DHT22;57172;52.034;5.090;2022-10-31T13:45:16;18.70;69.80
69895;DHT22;57172;52.034;5.090;2022-10-31T13:47:54;18.60;69.90
69895;DHT22;57172;52.034;5.090;2022-10-31T13:50:24;18.50;70.20
69895;DHT22;57172;52.034;5.090;2022-10-31T13:52:51;18.50;70.40
69895;DHT22;57172;52.034;5.090;2022-10-31T13:55:38;18.50;70.50
69895;DHT22;57172;52.034;5.090;2022-10-31T13:58:29;18.50;70.70
69895;DHT22;57172;52.034;5.090;2022-10-31T14:03:38;18.40;70.80
69895;DHT22;57172;52.034;5.090;2022-10-31T14:07:08;18.40;70.80
69895;DHT22;57172;52.034;5.090;2022-10-31T14:12:41;18.30;71.00
69895;DHT22;57172;52.034;5.090;2022-10-31T14:22:42;18.20;71.60
69895;DHT22;57172;52.034;5.090;2022-10-31T14:25:32;18.10;71.70
69895;DHT22;57172;52.034;5.090;2022-10-31T14:28:02;18.10;71.90
69895;DHT22;57172;52.034;5.090;2022-10-31T14:30:30;18.10;71.80
69895;DHT22;57172;52.034;5.090;2022-10-31T14:33:16;18.20;71.90
69895;DHT22;57172;52.034;5.090;2022-10-31T14:36:12;18.20;71.90
69895;DHT22;57172;52.034;5.090;2022-10-31T14:39:02;18.10;72.00
69895;DHT22;57172;52.034;5.090;2022-10-31T14:44:42;18.00;72.30
69895;DHT22;57172;52.034;5.090;2022-10-31T14:47:42;18.10;72.40
69895;DHT22;57172;52.034;5.090;2022-10-31T14:50:33;18.10;72.50
69895;DHT22;57172;52.034;5.090;2022-10-31T14:53:02;18.00;72.50
69895;DHT22;57172;52.034;5.090;2022-10-31T14:55:31;18.00;72.50
69895;DHT22;57172;52.034;5.090;2022-10-31T14:58:01;18.00;72.40
69895;DHT22;57172;52.034;5.090;2022-10-31T15:00:29;18.00;72.50
69895;DHT22;57172;52.034;5.090;2022-10-31T15:03:15;17.90;72.60
69895;DHT22;57172;52.034;5.090;2022-10-31T15:06:01;17.90;72.80
69895;DHT22;57172;52.034;5.090;2022-10-31T15:08:33;17.90;72.70
69895;DHT22;57172;52.034;5.090;2022-10-31T15:11:25;17.90;72.70
69895;DHT22;57172;52.034;5.090;2022-10-31T15:13:54;17.90;72.70
69895;DHT22;57172;52.034;5.090;2022-10-31T15:16:30;17.90;72.60
69895;DHT22;57172;52.034;5.090;2022-10-31T15:19:05;17.90;72.70
69895;DHT22;57172;52.034;5.090;2022-10-31T15:21:42;17.80;72.80
69895;DHT22;57172;52.034;5.090;2022-10-31T15:24:14;17.80;72.90
69895;DHT22;57172;52.034;5.090;2022-10-31T15:26:46;17.80;73.00
69895;DHT22;57172;52.034;5.090;2022-10-31T15:29:16;17.80;73.10
69895;DHT22;57172;52.034;5.090;2022-10-31T15:32:23;17.70;73.00
69895;DHT22;57172;52.034;5.090;2022-10-31T15:34:51;17.70;73.10
69895;DHT22;57172;52.034;5.090;2022-10-31T15:37:20;17.70;73.10
69895;DHT22;57172;52.034;5.090;2022-10-31T15:39:48;17.70;73.10
69895;DHT22;57172;52.034;5.090;2022-10-31T15:44:49;17.60;73.00
69895;DHT22;57172;52.034;5.090;2022-10-31T15:47:20;17.70;73.00
69895;DHT22;57172;52.034;5.090;2022-10-31T15:49:52;17.60;73.00
69895;DHT22;57172;52.034;5.090;2022-10-31T15:55:02;17.50;72.90
69895;DHT22;57172;52.034;5.090;2022-10-31T15:57:30;17.40;72.90
69895;DHT22;57172;52.034;5.090;2022-10-31T15:59:57;17.40;72.80
69895;DHT22;57172;52.034;5.090;2022-10-31T16:02:26;17.30;72.80
69895;DHT22;57172;52.034;5.090;2022-10-31T16:05:00;17.20;73.00
69895;DHT22;57172;52.034;5.090;2022-10-31T16:07:29;17.20;73.00
69895;DHT22;57172;52.034;5.090;2022-10-31T16:10:01;17.10;73.20
69895;DHT22;57172;52.034;5.090;2022-10-31T16:12:44;17.00;73.20
69895;DHT22;57172;52.034;5.090;2022-10-31T16:15:14;16.90;73.30
69895;DHT22;57172;52.034;5.090;2022-10-31T16:17:44;16.90;73.40
69895;DHT22;57172;52.034;5.090;2022-10-31T16:20:28;16.80;73.40
69895;DHT22;57172;52.034;5.090;2022-10-31T16:22:58;16.80;73.70
69895;DHT22;57172;52.034;5.090;2022-10-31T16:25:29;16.70;73.80
69895;DHT22;57172;52.034;5.090;2022-10-31T16:28:21;16.70;73.90
69895;DHT22;57172;52.034;5.090;2022-10-31T16:30:56;16.60;74.10
69895;DHT22;57172;52.034;5.090;2022-10-31T16:33:29;16.60;74.30
69895;DHT22;57172;52.034;5.090;2022-10-31T16:35:58;16.60;74.40
69895;DHT22;57172;52.034;5.090;2022-10-31T16:38:45;16.50;74.50
69895;DHT22;57172;52.034;5.090;2022-10-31T16:41:12;16.50;74.70
69895;DHT22;57172;52.034;5.090;2022-10-31T16:43:39;16.50;74.80
69895;DHT22;57172;52.034;5.090;2022-10-31T16:46:08;16.50;74.90
69895;DHT22;57172;52.034;5.090;2022-10-31T16:48:39;16.50;74.80
69895;DHT22;57172;52.034;5.090;2022-10-31T16:51:07;16.50;74.70
69895;DHT22;57172;52.034;5.090;2022-10-31T16:53:34;16.40;74.70
69895;DHT22;57172;52.034;5.090;2022-10-31T16:56:03;16.40;74.70
69895;DHT22;57172;52.034;5.090;2022-10-31T16:58:32;16.40;74.70
69895;DHT22;57172;52.034;5.090;2022-10-31T17:01:02;16.30;74.80
69895;DHT22;57172;52.034;5.090;2022-10-31T17:03:30;16.30;74.90
69895;DHT22;57172;52.034;5.090;2022-10-31T17:05:57;16.30;74.80
69895;DHT22;57172;52.034;5.090;2022-10-31T17:08:24;16.20;74.90
69895;DHT22;57172;52.034;5.090;2022-10-31T17:10:54;16.20;75.00
69895;DHT22;57172;52.034;5.090;2022-10-31T17:13:24;16.10;75.20
69895;DHT22;57172;52.034;5.090;2022-10-31T17:15:55;16.10;75.20
69895;DHT22;57172;52.034;5.090;2022-10-31T17:18:22;16.10;75.40
69895;DHT22;57172;52.034;5.090;2022-10-31T17:20:58;16.00;75.40
69895;DHT22;57172;52.034;5.090;2022-10-31T17:23:26;16.00;75.60
69895;DHT22;57172;52.034;5.090;2022-10-31T17:25:55;15.90;75.50
69895;DHT22;57172;52.034;5.090;2022-10-31T17:28:22;15.90;75.50
69895;DHT22;57172;52.034;5.090;2022-10-31T17:30:49;15.90;75.80
69895;DHT22;57172;52.034;5.090;2022-10-31T17:33:16;15.80;75.80
69895;DHT22;57172;52.034;5.090;2022-10-31T17:35:43;15.80;76.00
69895;DHT22;57172;52.034;5.090;2022-10-31T17:38:11;15.80;76.00
69895;DHT22;57172;52.034;5.090;2022-10-31T17:40:39;15.70;76.20
69895;DHT22;57172;52.034;5.090;2022-10-31T17:43:09;15.70;76.30
69895;DHT22;57172;52.034;5.090;2022-10-31T17:45:38;15.70;76.30
69895;DHT22;57172;52.034;5.090;2022-10-31T17:48:06;15.70;76.50
69895;DHT22;57172;52.034;5.090;2022-10-31T17:50:33;15.70;76.80
69895;DHT22;57172;52.034;5.090;2022-10-31T17:53:00;15.60;77.00
69895;DHT22;57172;52.034;5.090;2022-10-31T17:55:27;15.60;77.10
69895;DHT22;57172;52.034;5.090;2022-10-31T17:58:03;15.60;77.00
69895;DHT22;57172;52.034;5.090;2022-10-31T18:00:31;15.60;77.10
69895;DHT22;57172;52.034;5.090;2022-10-31T18:02:58;15.60;77.00
69895;DHT22;57172;52.034;5.090;2022-10-31T18:05:25;15.60;77.10
69895;DHT22;57172;52.034;5.090;2022-10-31T18:07:52;15.50;77.20
69895;DHT22;57172;52.034;5.090;2022-10-31T18:10:19;15.50;77.30
69895;DHT22;57172;52.034;5.090;2022-10-31T18:12:45;15.50;77.40
69895;DHT22;57172;52.034;5.090;2022-10-31T18:15:15;15.50;77.30
69895;DHT22;57172;52.034;5.090;2022-10-31T18:17:42;15.40;77.50
69895;DHT22;57172;52.034;5.090;2022-10-31T18:20:09;15.40;77.60
69895;DHT22;57172;52.034;5.090;2022-10-31T18:22:37;15.40;77.60
69895;DHT22;57172;52.034;5.090;2022-10-31T18:25:04;15.40;77.50